Time;durP1;ratioP1;P1;durP2;ratioP2;P2;SDS_P1;SDS_P2;PMS_P1;PMS_P2;Temp;Humidity;BMP_temperature;BMP_pressure;BME280_temperature;BME280_humidity;BME280_pressure;Samples;Min_cycle;Max_cycle;Signal;HPM_P1;HPM_P2
2022/02/24 00:01:47;;;;;;;4.13;3.28;;;10.20;59.00;;;;;;5056093;28;20041;-77
2022/02/24 00:04:13;;;;;;;3.95;3.17;;;10.20;58.90;;;;;;5056668;28;20501;-77
2022/02/24 00:06:39;;;;;;;3.30;3.00;;;10.30;59.00;;;;;;5056135;28;20120;-76
2022/02/24 00:09:07;;;;;;;3.75;3.20;;;10.20;58.90;;;;;;5056606;28;20146;-76
2022/02/24 00:11:35;;;;;;;3.33;2.92;;;10.20;58.90;;;;;;5056783;28;20033;-76
2022/02/24 00:14:01;;;;;;;4.53;2.83;;;10.20;59.00;;;;;;5056865;28;20048;-76
2022/02/24 00:16:27;;;;;;;3.75;3.15;;;10.20;58.90;;;;;;5054815;28;20037;-75
2022/02/24 00:18:54;;;;;;;4.13;3.30;;;10.20;58.70;;;;;;5055420;28;20043;-76
2022/02/24 00:21:21;;;;;;;4.75;2.95;;;10.20;58.60;;;;;;5021089;28;20033;-75
2022/02/24 00:23:48;;;;;;;4.03;3.20;;;10.20;58.60;;;;;;5037852;28;20043;-75
2022/02/24 00:26:14;;;;;;;3.35;3.05;;;10.20;58.50;;;;;;5055301;28;20036;-76
2022/02/24 00:28:40;;;;;;;4.10;2.83;;;10.20;58.60;;;;;;5054556;28;20037;-75
2022/02/24 00:31:09;;;;;;;3.80;2.70;;;10.20;58.60;;;;;;5038483;28;20033;-76
2022/02/24 00:33:36;;;;;;;3.40;2.95;;;10.20;58.40;;;;;;5011710;28;20035;-75
2022/02/24 00:36:02;;;;;;;4.55;3.22;;;10.20;58.40;;;;;;5055235;28;20137;-77
2022/02/24 00:38:28;;;;;;;3.95;3.15;;;10.20;58.40;;;;;;5054362;28;20728;-77
2022/02/24 00:40:54;;;;;;;3.22;2.85;;;10.20;58.40;;;;;;5056495;28;20518;-77
2022/02/24 00:43:20;;;;;;;4.47;2.85;;;10.20;58.40;;;;;;5054367;28;20033;-76
2022/02/24 00:45:46;;;;;;;3.25;2.88;;;10.20;58.40;;;;;;5055483;28;20523;-76
2022/02/24 00:48:12;;;;;;;3.30;2.70;;;10.20;58.40;;;;;;5025750;28;20039;-76
2022/02/24 00:50:38;;;;;;;3.20;2.90;;;10.20;58.40;;;;;;5022000;28;20642;-76
2022/02/24 00:53:05;;;;;;;3.58;2.97;;;10.20;58.50;;;;;;5055513;28;20379;-76
2022/02/24 00:55:31;;;;;;;3.25;2.95;;;10.20;58.50;;;;;;5037089;28;20033;-76
2022/02/24 00:57:57;;;;;;;3.17;2.88;;;10.20;58.50;;;;;;5037277;28;20047;-76
2022/02/24 01:00:23;;;;;;;3.83;2.83;;;10.20;58.50;;;;;;5006733;28;20091;-76
2022/02/24 01:02:49;;;;;;;3.45;3.15;;;10.20;58.50;;;;;;5055502;28;20049;-76
2022/02/24 01:05:15;;;;;;;3.97;3.15;;;10.20;58.40;;;;;;5038546;28;20033;-76
2022/02/24 01:07:41;;;;;;;4.63;3.22;;;10.20;58.40;;;;;;5055423;28;20557;-75
2022/02/24 01:10:08;;;;;;;3.97;3.08;;;10.20;58.40;;;;;;5055496;28;20055;-76
2022/02/24 01:12:34;;;;;;;3.55;3.10;;;10.20;58.40;;;;;;5037073;28;20041;-76
2022/02/24 01:15:06;;;;;;;3.38;3.03;;;10.20;58.40;;;;;;5057664;28;20382;-77
2022/02/24 01:17:36;;;;;;;4.03;3.08;;;10.20;58.40;;;;;;5037341;28;20032;-76
2022/02/24 01:20:07;;;;;;;4.10;3.10;;;10.20;58.30;;;;;;5038599;28;20029;-77
2022/02/24 01:22:33;;;;;;;3.45;3.15;;;10.20;58.30;;;;;;5054680;28;20040;-76
2022/02/24 01:24:59;;;;;;;6.10;3.45;;;10.20;58.20;;;;;;5055752;28;20077;-76
2022/02/24 01:27:25;;;;;;;4.03;3.30;;;10.20;58.30;;;;;;5036345;28;20032;-77
2022/02/24 01:29:52;;;;;;;3.55;3.13;;;10.20;58.40;;;;;;5055104;28;20029;-76
2022/02/24 01:32:18;;;;;;;3.70;3.00;;;10.20;58.30;;;;;;5055508;28;20033;-77
2022/02/24 01:34:44;;;;;;;4.07;3.00;;;10.20;58.40;;;;;;5052092;28;20450;-76
2022/02/24 01:37:10;;;;;;;4.07;3.30;;;10.20;58.30;;;;;;5052863;28;20037;-76
2022/02/24 01:39:36;;;;;;;4.63;3.33;;;10.20;58.30;;;;;;5011405;28;20461;-76
2022/02/24 01:42:02;;;;;;;3.88;3.35;;;10.20;58.30;;;;;;5055164;28;20128;-76
2022/02/24 01:44:40;;;;;;;4.20;3.55;;;10.20;58.30;;;;;;5037156;28;20518;-76
2022/02/24 01:47:07;;;;;;;4.03;3.33;;;10.10;58.20;;;;;;5035709;28;20044;-75
2022/02/24 01:49:33;;;;;;;4.18;3.35;;;10.20;58.30;;;;;;5054974;28;20069;-77
2022/02/24 01:51:59;;;;;;;3.60;3.30;;;10.20;58.20;;;;;;5054530;28;20029;-76
2022/02/24 01:54:26;;;;;;;4.15;3.28;;;10.20;58.20;;;;;;5054344;28;20166;-76
2022/02/24 01:56:52;;;;;;;3.90;3.03;;;10.10;58.20;;;;;;5054111;28;20515;-76
2022/02/24 01:59:18;;;;;;;5.35;3.40;;;10.10;58.20;;;;;;5055578;28;20036;-76
2022/02/24 02:01:44;;;;;;;3.25;2.95;;;10.10;58.10;;;;;;5053877;28;20089;-77
2022/02/24 02:04:10;;;;;;;5.45;3.85;;;10.10;58.20;;;;;;5053608;28;20085;-77
2022/02/24 02:06:37;;;;;;;3.78;3.38;;;10.10;58.70;;;;;;5053463;28;20083;-76
2022/02/24 02:09:03;;;;;;;3.83;3.30;;;10.10;58.10;;;;;;5036238;28;20775;-77
2022/02/24 02:11:29;;;;;;;4.13;3.35;;;10.10;58.00;;;;;;5053032;28;20068;-77
2022/02/24 02:13:55;;;;;;;3.42;3.13;;;10.10;58.10;;;;;;5055118;28;20040;-77
2022/02/24 02:16:21;;;;;;;4.95;3.17;;;10.10;58.10;;;;;;5053376;28;20064;-77
2022/02/24 02:18:47;;;;;;;5.15;3.22;;;10.10;58.10;;;;;;5052676;28;20466;-77
2022/02/24 02:21:14;;;;;;;4.28;3.25;;;10.10;58.20;;;;;;5052812;28;20041;-78
2022/02/24 02:23:40;;;;;;;3.47;2.70;;;10.00;58.30;;;;;;5019615;28;20127;-78
2022/02/24 02:26:06;;;;;;;3.67;2.97;;;10.00;58.30;;;;;;5055003;28;20111;-78
2022/02/24 02:28:32;;;;;;;3.78;2.97;;;10.00;58.30;;;;;;5054384;28;20564;-77
2022/02/24 02:30:58;;;;;;;3.42;2.42;;;10.00;58.40;;;;;;5053336;28;20048;-77
2022/02/24 02:33:24;;;;;;;2.85;2.38;;;10.00;58.30;;;;;;5052158;28;20032;-77
2022/02/24 02:35:50;;;;;;;3.45;2.58;;;10.00;58.30;;;;;;5052349;28;20035;-76
2022/02/24 02:38:16;;;;;;;3.50;2.13;;;9.90;58.20;;;;;;5054552;28;20694;-77
2022/02/24 02:40:41;;;;;;;3.20;2.40;;;10.00;58.20;;;;;;5035754;28;20044;-76
2022/02/24 02:43:09;;;;;;;2.78;2.45;;;10.00;58.20;;;;;;5035530;28;20040;-77
2022/02/24 02:45:37;;;;;;;2.03;1.83;;;10.00;58.10;;;;;;5053331;28;20478;-76
2022/02/24 02:48:04;;;;;;;2.92;2.20;;;10.00;58.00;;;;;;5052634;28;20040;-76
2022/02/24 02:50:31;;;;;;;4.22;2.17;;;10.00;57.80;;;;;;5035920;28;20043;-76
2022/02/24 02:53:01;;;;;;;2.03;1.73;;;10.10;57.60;;;;;;5034844;28;20044;-77
2022/02/24 02:55:27;;;;;;;2.20;1.90;;;10.00;57.40;;;;;;5053969;28;20041;-76
2022/02/24 02:57:53;;;;;;;2.08;1.88;;;10.10;57.30;;;;;;5054140;28;20044;-76
2022/02/24 03:00:19;;;;;;;1.48;1.30;;;10.10;57.10;;;;;;5054222;28;20526;-76
2022/02/24 03:02:45;;;;;;;1.23;1.13;;;10.10;57.00;;;;;;5052140;28;20518;-76
2022/02/24 03:05:11;;;;;;;1.42;1.23;;;10.00;56.80;;;;;;5054469;28;20021;-76
2022/02/24 03:07:38;;;;;;;1.88;1.52;;;10.00;56.80;;;;;;5034386;28;20041;-76
2022/02/24 03:10:05;;;;;;;1.77;1.00;;;10.10;56.80;;;;;;5052927;28;20032;-76
2022/02/24 03:12:36;;;;;;;1.65;1.55;;;10.00;56.80;;;;;;5019291;28;20036;-76
2022/02/24 03:15:09;;;;;;;1.15;1.02;;;10.10;56.80;;;;;;5053727;28;20088;-76
2022/02/24 03:17:36;;;;;;;1.30;1.20;;;10.00;56.80;;;;;;5056576;28;20123;-76
2022/02/24 03:20:02;;;;;;;1.23;1.00;;;10.00;56.80;;;;;;5042789;28;20518;-76
2022/02/24 03:22:28;;;;;;;2.78;1.48;;;10.00;56.80;;;;;;5057548;28;20037;-76
2022/02/24 03:24:54;;;;;;;1.58;1.00;;;10.10;56.80;;;;;;5038270;28;20029;-77
2022/02/24 03:27:20;;;;;;;1.40;1.30;;;10.10;56.70;;;;;;5039118;28;20411;-77
2022/02/24 03:29:46;;;;;;;1.42;1.10;;;10.00;56.60;;;;;;5038375;28;20056;-77
2022/02/24 03:32:12;;;;;;;1.00;1.00;;;10.10;56.60;;;;;;5057057;28;20035;-78
2022/02/24 03:34:40;;;;;;;0.93;0.90;;;10.10;56.50;;;;;;5057139;28;20507;-78
2022/02/24 03:37:07;;;;;;;1.20;1.10;;;10.10;56.60;;;;;;5055777;28;20474;-78
2022/02/24 03:39:33;;;;;;;1.30;1.20;;;10.10;56.60;;;;;;5056530;28;20047;-80
2022/02/24 03:41:59;;;;;;;1.55;1.00;;;10.10;56.70;;;;;;5038490;28;20395;-80
2022/02/24 03:44:25;;;;;;;1.48;1.13;;;10.00;56.70;;;;;;5057916;28;20058;-80
2022/02/24 03:46:51;;;;;;;1.88;1.17;;;10.00;56.70;;;;;;5057357;28;20029;-80
2022/02/24 03:49:17;;;;;;;1.30;1.20;;;10.00;56.50;;;;;;5058371;28;20086;-80
2022/02/24 03:51:43;;;;;;;1.55;1.30;;;10.00;56.60;;;;;;5056959;28;20166;-80
2022/02/24 03:54:09;;;;;;;2.97;1.13;;;10.00;56.60;;;;;;5055850;28;20032;-78
2022/02/24 03:56:35;;;;;;;2.08;1.10;;;10.00;56.60;;;;;;5056728;28;20502;-79
2022/02/24 03:59:02;;;;;;;2.30;1.67;;;10.00;56.70;;;;;;5056587;28;20070;-80
2022/02/24 04:01:28;;;;;;;2.97;1.17;;;10.00;56.60;;;;;;5056342;28;20036;-81
2022/02/24 04:03:54;;;;;;;1.25;1.15;;;10.00;56.60;;;;;;5055967;28;20037;-78
2022/02/24 04:06:20;;;;;;;1.45;1.33;;;10.00;56.50;;;;;;5038148;28;20546;-80
2022/02/24 04:08:47;;;;;;;2.50;1.45;;;10.00;56.40;;;;;;5056729;28;20029;-77
2022/02/24 04:11:13;;;;;;;1.42;1.25;;;10.00;56.40;;;;;;5056893;28;20044;-78
2022/02/24 04:13:38;;;;;;;1.25;1.15;;;10.00;56.30;;;;;;5041671;28;20037;-79
2022/02/24 04:16:04;;;;;;;1.27;1.17;;;10.00;56.40;;;;;;5054777;28;20029;-77
2022/02/24 04:18:30;;;;;;;1.70;1.30;;;10.00;56.40;;;;;;5056390;28;20396;-78
2022/02/24 04:20:56;;;;;;;1.45;1.35;;;10.00;56.40;;;;;;5055815;28;20045;-78
2022/02/24 04:23:22;;;;;;;1.48;1.38;;;10.00;56.40;;;;;;5037535;28;20029;-78
2022/02/24 04:25:48;;;;;;;1.75;1.50;;;10.00;56.40;;;;;;5041483;28;20028;-77
2022/02/24 04:28:14;;;;;;;1.70;1.50;;;10.00;56.40;;;;;;5055463;28;20041;-77
2022/02/24 04:30:40;;;;;;;4.97;1.65;;;10.00;56.40;;;;;;5037654;28;20033;-80
2022/02/24 04:33:07;;;;;;;2.72;1.90;;;10.00;56.50;;;;;;5055601;28;20060;-78
2022/02/24 04:35:33;;;;;;;2.00;1.60;;;10.00;56.50;;;;;;5056608;28;20032;-78
2022/02/24 04:37:59;;;;;;;2.00;1.50;;;10.00;56.60;;;;;;5038055;28;20040;-81
2022/02/24 04:40:25;;;;;;;2.45;1.50;;;10.00;56.60;;;;;;5054685;28;20043;-78
2022/02/24 04:42:51;;;;;;;2.05;1.65;;;10.00;56.80;;;;;;5055713;28;20095;-77
2022/02/24 04:45:17;;;;;;;2.30;1.80;;;10.00;56.80;;;;;;5054229;28;20037;-78
2022/02/24 04:47:43;;;;;;;3.00;2.30;;;10.00;56.90;;;;;;5055977;28;20812;-78
2022/02/24 04:50:10;;;;;;;3.92;2.30;;;10.00;57.10;;;;;;5055600;28;20085;-77
2022/02/24 04:52:37;;;;;;;3.75;2.08;;;10.00;57.10;;;;;;5055046;28;20068;-77
2022/02/24 04:55:04;;;;;;;3.75;2.53;;;10.00;57.20;;;;;;5055409;28;20024;-76
2022/02/24 04:57:30;;;;;;;2.92;2.05;;;10.00;57.30;;;;;;5056797;28;20509;-78
2022/02/24 04:59:56;;;;;;;3.38;2.40;;;10.10;57.30;;;;;;5055300;28;20037;-77
2022/02/24 05:02:22;;;;;;;2.40;2.15;;;10.10;57.30;;;;;;5055251;28;20152;-77
2022/02/24 05:04:49;;;;;;;2.47;2.25;;;10.00;57.30;;;;;;5036696;28;20035;-77
2022/02/24 05:07:15;;;;;;;3.97;2.38;;;10.10;57.30;;;;;;5055421;28;20558;-78
2022/02/24 05:09:42;;;;;;;3.08;2.67;;;10.10;57.20;;;;;;5036547;28;20391;-75
2022/02/24 05:12:09;;;;;;;4.75;2.15;;;10.00;57.20;;;;;;5054018;28;20037;-74
2022/02/24 05:14:35;;;;;;;2.50;2.30;;;10.00;57.20;;;;;;5019529;28;20557;-77
2022/02/24 05:17:01;;;;;;;4.60;2.42;;;10.00;57.10;;;;;;5039241;28;20036;-77
2022/02/24 05:19:27;;;;;;;4.53;2.72;;;10.00;56.90;;;;;;5054665;28;20033;-76
2022/02/24 05:21:52;;;;;;;3.53;2.80;;;10.00;56.90;;;;;;5054053;28;20035;-75
2022/02/24 05:24:18;;;;;;;3.53;2.67;;;10.00;57.00;;;;;;5019569;28;20083;-75
2022/02/24 05:26:44;;;;;;;3.10;2.50;;;10.00;56.90;;;;;;5040490;28;20406;-76
2022/02/24 05:29:10;;;;;;;2.45;2.13;;;10.00;57.40;;;;;;5020175;28;20024;-77
2022/02/24 05:31:36;;;;;;;2.80;2.30;;;10.00;56.70;;;;;;5035512;28;20044;-77
2022/02/24 05:34:03;;;;;;;3.28;2.40;;;10.00;56.70;;;;;;5054739;28;20028;-78
2022/02/24 05:36:29;;;;;;;5.18;2.42;;;10.00;56.70;;;;;;5023853;28;20041;-79
2022/02/24 05:38:55;;;;;;;3.78;2.60;;;10.00;56.70;;;;;;5037090;28;20036;-78
2022/02/24 05:41:22;;;;;;;3.63;2.78;;;10.00;56.70;;;;;;5036568;28;20024;-78
2022/02/24 05:43:51;;;;;;;3.20;2.42;;;9.90;56.50;;;;;;5020307;28;20178;-79
2022/02/24 05:46:16;;;;;;;2.65;2.25;;;9.90;56.40;;;;;;5054532;28;20396;-77
2022/02/24 05:48:43;;;;;;;3.03;2.65;;;9.90;56.30;;;;;;5056019;28;20043;-79
2022/02/24 05:51:11;;;;;;;4.57;2.53;;;10.00;56.10;;;;;;5054197;28;20047;-78
2022/02/24 05:53:37;;;;;;;4.10;2.95;;;9.90;56.00;;;;;;5054542;28;20040;-78
2022/02/24 05:56:04;;;;;;;4.43;3.15;;;9.90;56.20;;;;;;5037008;28;20165;-78
2022/02/24 05:58:31;;;;;;;5.20;3.03;;;9.90;56.30;;;;;;5036482;28;20123;-78
2022/02/24 06:00:57;;;;;;;3.83;2.85;;;9.90;56.30;;;;;;5034727;28;20459;-79
2022/02/24 06:03:23;;;;;;;3.55;2.55;;;9.90;56.40;;;;;;5055393;28;20040;-78
2022/02/24 06:05:51;;;;;;;4.72;2.60;;;10.00;56.50;;;;;;5035320;28;20033;-78
2022/02/24 06:08:17;;;;;;;4.22;2.88;;;9.90;56.50;;;;;;5054871;28;20533;-76
2022/02/24 06:10:43;;;;;;;4.43;2.67;;;9.90;56.40;;;;;;5051454;28;20048;-77
2022/02/24 06:13:09;;;;;;;2.95;2.28;;;10.00;56.40;;;;;;5054377;28;20427;-78
2022/02/24 06:15:35;;;;;;;4.57;2.60;;;10.00;56.30;;;;;;5052818;28;20576;-77
2022/02/24 06:18:08;;;;;;;3.05;2.25;;;10.00;56.20;;;;;;5054823;28;20029;-77
2022/02/24 06:20:35;;;;;;;3.10;2.08;;;10.00;56.10;;;;;;5051662;28;20503;-75
2022/02/24 06:23:01;;;;;;;3.22;2.20;;;10.00;56.00;;;;;;5036714;28;20070;-76
2022/02/24 06:25:27;;;;;;;3.97;2.30;;;10.00;55.90;;;;;;5034819;28;20076;-75
2022/02/24 06:27:53;;;;;;;3.55;2.00;;;10.00;55.90;;;;;;5034687;28;20030;-75
2022/02/24 06:30:19;;;;;;;9.63;2.45;;;10.00;55.80;;;;;;5035554;28;20040;-76
2022/02/24 06:32:45;;;;;;;2.85;2.00;;;9.90;55.70;;;;;;5017098;28;20036;-74
2022/02/24 06:35:12;;;;;;;3.50;2.00;;;10.00;55.80;;;;;;5034275;28;20029;-75
2022/02/24 06:37:45;;;;;;;4.28;2.17;;;10.00;55.80;;;;;;5032324;28;20040;-75
2022/02/24 06:40:12;;;;;;;3.92;2.20;;;10.00;55.80;;;;;;5045833;28;20068;-75
2022/02/24 06:42:38;;;;;;;3.13;1.67;;;10.00;55.70;;;;;;5023347;28;20041;-76
2022/02/24 06:45:05;;;;;;;3.22;2.10;;;10.00;55.70;;;;;;5052395;28;20575;-74
2022/02/24 06:47:32;;;;;;;2.88;1.90;;;9.90;55.60;;;;;;5036153;28;20120;-77
2022/02/24 06:49:58;;;;;;;4.18;2.00;;;10.00;55.60;;;;;;5002283;28;20048;-76
2022/02/24 06:52:24;;;;;;;2.30;1.92;;;10.00;55.50;;;;;;5036502;28;20531;-76
2022/02/24 06:54:50;;;;;;;2.70;1.88;;;9.90;55.40;;;;;;5021097;28;20056;-76
2022/02/24 06:57:16;;;;;;;2.20;2.00;;;9.90;55.30;;;;;;5037125;28;20028;-76
2022/02/24 06:59:42;;;;;;;3.33;2.17;;;10.00;55.20;;;;;;5038329;28;20031;-76
2022/02/24 07:02:08;;;;;;;2.33;2.10;;;10.00;55.10;;;;;;5056396;28;20061;-76
2022/02/24 07:04:34;;;;;;;2.72;2.00;;;9.90;55.00;;;;;;5056975;28;20063;-75
2022/02/24 07:07:01;;;;;;;4.32;2.30;;;9.90;54.90;;;;;;5056114;28;20032;-77
2022/02/24 07:09:28;;;;;;;3.83;1.90;;;9.90;54.80;;;;;;5038442;28;20526;-76
2022/02/24 07:11:55;;;;;;;2.92;2.20;;;10.00;54.80;;;;;;5055881;28;20060;-76
2022/02/24 07:14:21;;;;;;;2.60;1.83;;;10.00;54.70;;;;;;5039395;28;20037;-76
2022/02/24 07:16:47;;;;;;;1.83;1.63;;;10.00;54.70;;;;;;5055316;28;20462;-76
2022/02/24 07:19:14;;;;;;;3.00;2.10;;;10.00;54.60;;;;;;5042889;28;20035;-76
2022/02/24 07:21:40;;;;;;;2.25;1.98;;;10.00;54.60;;;;;;5055434;28;20194;-76
2022/02/24 07:24:06;;;;;;;2.22;1.80;;;10.00;54.50;;;;;;5021021;28;20048;-77
2022/02/24 07:26:33;;;;;;;3.80;2.22;;;10.00;54.40;;;;;;5037249;28;20541;-76
2022/02/24 07:28:59;;;;;;;2.35;2.10;;;10.00;54.30;;;;;;5038044;28;20119;-76
2022/02/24 07:31:25;;;;;;;2.90;2.30;;;10.00;54.30;;;;;;5052711;28;20748;-76
2022/02/24 07:33:50;;;;;;;3.85;2.22;;;10.00;54.10;;;;;;5025372;28;20086;-77
2022/02/24 07:36:16;;;;;;;2.78;1.92;;;10.00;54.10;;;;;;5056941;28;20063;-76
2022/02/24 07:38:43;;;;;;;3.03;2.22;;;10.00;54.10;;;;;;5034213;28;20404;-76
2022/02/24 07:41:10;;;;;;;2.65;2.22;;;10.10;54.10;;;;;;5037862;28;20087;-77
2022/02/24 07:43:36;;;;;;;3.05;2.15;;;10.00;54.10;;;;;;5036750;28;20132;-76
2022/02/24 07:46:03;;;;;;;3.33;2.20;;;10.00;54.00;;;;;;5055413;28;20106;-76
2022/02/24 07:48:29;;;;;;;3.70;2.25;;;10.00;53.90;;;;;;5036411;28;20507;-76
2022/02/24 07:50:55;;;;;;;4.13;2.55;;;10.00;53.90;;;;;;5037081;28;20036;-76
2022/02/24 07:53:22;;;;;;;2.50;2.20;;;10.00;53.80;;;;;;5041906;28;20419;-76
2022/02/24 07:55:49;;;;;;;3.92;2.15;;;10.00;53.80;;;;;;5037029;28;20037;-76
2022/02/24 07:58:15;;;;;;;5.60;2.00;;;10.00;53.70;;;;;;5036061;28;20507;-77
2022/02/24 08:00:41;;;;;;;3.50;2.20;;;10.00;53.70;;;;;;5054909;28;20530;-76
2022/02/24 08:03:07;;;;;;;2.97;2.10;;;10.00;53.70;;;;;;5055494;28;20057;-76
2022/02/24 08:05:33;;;;;;;3.10;2.15;;;10.00;53.70;;;;;;5034801;28;20033;-76
2022/02/24 08:07:59;;;;;;;4.20;2.25;;;10.00;53.70;;;;;;5038735;28;20124;-76
2022/02/24 08:10:25;;;;;;;2.97;2.40;;;10.00;53.70;;;;;;5054824;28;20041;-76
2022/02/24 08:12:51;;;;;;;2.58;2.35;;;10.00;53.80;;;;;;5055076;28;20029;-76
2022/02/24 08:15:20;;;;;;;3.88;2.40;;;10.00;53.80;;;;;;5035240;28;20420;-76
2022/02/24 08:17:47;;;;;;;4.05;2.42;;;10.00;53.80;;;;;;5053400;28;20712;-76
2022/02/24 08:20:13;;;;;;;6.32;2.90;;;10.10;53.90;;;;;;5054349;28;20102;-76
2022/02/24 08:22:42;;;;;;;4.70;2.80;;;10.10;53.90;;;;;;5036941;28;20033;-76
2022/02/24 08:25:11;;;;;;;3.65;2.80;;;10.10;53.80;;;;;;5034926;28;20086;-75
2022/02/24 08:27:38;;;;;;;4.15;2.90;;;10.10;53.80;;;;;;5054335;28;20048;-75
2022/02/24 08:30:09;;;;;;;4.95;2.95;;;10.10;53.70;;;;;;5054923;28;20419;-77
2022/02/24 08:32:37;;;;;;;5.75;3.13;;;10.10;53.70;;;;;;5043789;28;20510;-76
2022/02/24 08:35:04;;;;;;;4.80;2.97;;;10.10;53.60;;;;;;5025745;28;20560;-75
2022/02/24 08:37:30;;;;;;;2.92;2.33;;;10.10;53.50;;;;;;5055572;28;20419;-76
2022/02/24 08:39:56;;;;;;;9.88;3.05;;;10.10;53.50;;;;;;5054555;28;20072;-76
2022/02/24 08:42:28;;;;;;;3.88;2.67;;;10.20;53.60;;;;;;5055171;28;20089;-76
2022/02/24 08:44:54;;;;;;;4.25;2.70;;;10.10;53.60;;;;;;5054445;28;20048;-77
2022/02/24 08:47:22;;;;;;;3.17;2.72;;;10.10;54.80;;;;;;5019294;28;20033;-76
2022/02/24 08:49:49;;;;;;;7.03;3.30;;;10.10;54.80;;;;;;5053021;28;20025;-78
2022/02/24 08:52:15;;;;;;;5.35;3.45;;;10.10;54.50;;;;;;5021752;28;20044;-76
2022/02/24 08:54:42;;;;;;;3.85;3.20;;;10.00;54.10;;;;;;5052335;28;20036;-76
2022/02/24 08:57:08;;;;;;;4.80;3.10;;;9.90;53.90;;;;;;5054987;28;21092;-75
2022/02/24 08:59:35;;;;;;;4.32;3.25;;;9.90;53.60;;;;;;5021194;28;20044;-75
2022/02/24 09:02:01;;;;;;;5.45;2.95;;;9.90;53.40;;;;;;5040299;28;20060;-78
2022/02/24 09:04:27;;;;;;;5.93;3.50;;;9.90;53.00;;;;;;5051424;28;20171;-77
2022/02/24 09:06:53;;;;;;;4.97;3.33;;;9.90;52.20;;;;;;5060128;28;20087;-78
2022/02/24 09:09:19;;;;;;;11.00;3.65;;;9.80;51.90;;;;;;5039196;28;20060;-77
2022/02/24 09:11:45;;;;;;;4.47;3.60;;;9.70;52.20;;;;;;5036417;28;20492;-78
2022/02/24 09:14:11;;;;;;;3.70;3.10;;;9.70;52.10;;;;;;5053340;28;20037;-78
2022/02/24 09:16:38;;;;;;;5.38;3.42;;;9.60;52.40;;;;;;5035979;28;20036;-78
2022/02/24 09:19:04;;;;;;;3.92;3.08;;;9.60;52.30;;;;;;5053786;28;20166;-78
2022/02/24 09:21:30;;;;;;;11.65;3.78;;;9.50;52.40;;;;;;5053693;28;20051;-77
2022/02/24 09:23:55;;;;;;;6.40;3.28;;;9.50;52.40;;;;;;5052541;28;20045;-77
2022/02/24 09:26:21;;;;;;;6.57;3.78;;;9.50;52.60;;;;;;5031947;28;20541;-78
2022/02/24 09:28:47;;;;;;;7.55;3.70;;;9.40;52.30;;;;;;5053718;28;20105;-77
2022/02/24 09:31:13;;;;;;;5.90;3.70;;;9.30;52.20;;;;;;5018417;28;20033;-76
2022/02/24 09:33:39;;;;;;;6.65;3.90;;;9.30;52.30;;;;;;5039229;28;20037;-76
2022/02/24 09:36:05;;;;;;;5.45;3.65;;;9.30;52.50;;;;;;5052685;28;20044;-78
2022/02/24 09:38:31;;;;;;;6.28;3.67;;;9.30;52.40;;;;;;5053089;28;20032;-77
2022/02/24 09:40:57;;;;;;;5.82;3.50;;;9.30;52.40;;;;;;5036053;28;20123;-78
2022/02/24 09:43:31;;;;;;;6.30;4.13;;;9.20;52.30;;;;;;5050662;28;20059;-77
2022/02/24 09:46:01;;;;;;;6.65;3.60;;;9.30;52.50;;;;;;5052961;28;20029;-77
2022/02/24 09:48:33;;;;;;;6.05;3.70;;;9.20;52.40;;;;;;5067220;28;20029;-77
2022/02/24 09:51:02;;;;;;;5.72;3.55;;;9.20;52.10;;;;;;5033521;28;20025;-76
2022/02/24 09:53:34;;;;;;;4.80;3.20;;;9.20;51.90;;;;;;5018869;28;20053;-77
2022/02/24 09:56:02;;;;;;;5.10;3.40;;;9.20;51.80;;;;;;5037022;28;20033;-76
2022/02/24 09:58:28;;;;;;;5.88;3.22;;;9.20;51.70;;;;;;5052105;28;20032;-76
2022/02/24 10:00:59;;;;;;;3.58;3.28;;;9.20;52.10;;;;;;5034771;28;20516;-76
2022/02/24 10:03:31;;;;;;;4.60;3.45;;;9.20;52.10;;;;;;5034608;28;20106;-76
2022/02/24 10:06:02;;;;;;;6.18;3.13;;;9.20;52.20;;;;;;5026722;28;20408;-78
2022/02/24 10:08:34;;;;;;;3.92;2.88;;;9.20;52.10;;;;;;5051303;28;20574;-77
2022/02/24 10:11:02;;;;;;;5.95;3.03;;;9.20;51.90;;;;;;5034044;28;20031;-78
2022/02/24 10:13:29;;;;;;;5.90;3.05;;;9.20;51.70;;;;;;5034030;28;20536;-78
2022/02/24 10:16:01;;;;;;;4.72;2.88;;;9.20;51.40;;;;;;5035276;28;20038;-76
2022/02/24 10:18:30;;;;;;;4.60;3.30;;;9.20;51.70;;;;;;5057834;28;20407;-77
2022/02/24 10:21:00;;;;;;;4.32;2.63;;;9.30;53.30;;;;;;5047930;28;20084;-76
2022/02/24 10:23:34;;;;;;;3.67;2.50;;;9.30;54.40;;;;;;5055307;28;20064;-75
2022/02/24 10:26:18;;;;;;;4.05;2.60;;;9.40;54.70;;;;;;5056469;28;20419;-75
2022/02/24 10:28:49;;;;;;;2.47;2.28;;;9.50;54.60;;;;;;5053852;28;20029;-75
2022/02/24 10:31:23;;;;;;;2.67;2.47;;;9.60;54.60;;;;;;5057679;28;20037;-75
2022/02/24 10:34:12;;;;;;;3.47;2.80;;;9.60;54.40;;;;;;5052243;28;20515;-76
2022/02/24 10:36:38;;;;;;;3.55;2.67;;;9.70;54.40;;;;;;5060264;28;20041;-76
2022/02/24 10:39:07;;;;;;;4.47;3.17;;;9.80;54.30;;;;;;5040538;28;20036;-76
2022/02/24 10:41:36;;;;;;;4.40;3.00;;;9.80;54.30;;;;;;5056108;28;20112;-76
2022/02/24 10:44:24;;;;;;;3.65;2.42;;;9.80;55.00;;;;;;5029926;28;20044;-77
2022/02/24 10:47:13;;;;;;;4.63;2.67;;;9.80;54.50;;;;;;5054939;28;20029;-77
2022/02/24 10:49:41;;;;;;;3.60;2.58;;;9.90;54.60;;;;;;5053602;28;20584;-76
2022/02/24 10:52:14;;;;;;;2.80;2.60;;;9.90;54.60;;;;;;5060725;28;20040;-77
2022/02/24 10:54:43;;;;;;;3.10;2.80;;;9.90;54.60;;;;;;5015044;28;20500;-76
2022/02/24 10:57:16;;;;;;;3.55;2.95;;;9.90;54.50;;;;;;5035805;28;20051;-76
2022/02/24 10:59:43;;;;;;;3.38;2.58;;;10.00;54.50;;;;;;5064182;28;20033;-76
2022/02/24 11:02:09;;;;;;;5.20;2.63;;;10.00;54.40;;;;;;5063373;28;20096;-76
2022/02/24 11:04:36;;;;;;;4.45;2.72;;;10.00;54.20;;;;;;5034887;28;20081;-75
2022/02/24 11:07:03;;;;;;;3.42;2.88;;;10.00;54.10;;;;;;5057289;28;20415;-76
2022/02/24 11:09:30;;;;;;;4.07;2.80;;;10.00;53.90;;;;;;5056697;28;20128;-77
2022/02/24 11:11:57;;;;;;;3.35;2.90;;;10.10;53.90;;;;;;5038200;28;20029;-76
2022/02/24 11:14:25;;;;;;;4.78;2.70;;;10.10;53.90;;;;;;5056736;28;20090;-76
2022/02/24 11:16:51;;;;;;;3.58;2.58;;;10.10;53.80;;;;;;5058015;28;20083;-77
2022/02/24 11:19:17;;;;;;;3.40;2.45;;;10.10;53.70;;;;;;5054848;28;20037;-78
2022/02/24 11:21:44;;;;;;;2.90;2.45;;;10.10;53.60;;;;;;5034465;28;20583;-77
2022/02/24 11:24:10;;;;;;;2.65;1.90;;;10.10;53.60;;;;;;5055206;28;20071;-77
2022/02/24 11:26:40;;;;;;;2.53;2.10;;;10.20;53.40;;;;;;5061868;28;20040;-81
2022/02/24 11:29:16;;;;;;;2.70;2.00;;;10.10;53.20;;;;;;5066087;28;20044;-81
2022/02/24 11:31:43;;;;;;;2.47;1.90;;;10.20;53.20;;;;;;5059876;28;20037;-82
2022/02/24 11:34:09;;;;;;;3.15;2.10;;;10.20;53.10;;;;;;5028519;28;20029;-82
2022/02/24 11:36:44;;;;;;;2.40;1.85;;;10.20;53.10;;;;;;5038610;28;20075;-80
2022/02/24 11:39:13;;;;;;;2.75;2.22;;;10.20;53.10;;;;;;5056307;28;20064;-81
2022/02/24 11:41:47;;;;;;;2.33;1.80;;;10.20;53.10;;;;;;5042866;28;20037;-80
2022/02/24 11:44:34;;;;;;;2.67;1.87;;;10.20;53.10;;;;;;5040109;28;20036;-81
2022/02/24 11:47:08;;;;;;;2.67;1.98;;;10.20;53.10;;;;;;5038953;28;20047;-82
2022/02/24 11:49:53;;;;;;;3.60;2.10;;;10.20;53.10;;;;;;5065495;28;20095;-81
2022/02/24 11:52:27;;;;;;;4.60;2.10;;;10.20;53.00;;;;;;5055993;28;20173;-81
2022/02/24 11:54:54;;;;;;;2.58;1.88;;;10.30;53.00;;;;;;5035250;28;20033;-83
2022/02/24 11:57:36;;;;;;;2.50;1.63;;;10.30;52.90;;;;;;5051522;28;20037;-83
2022/02/24 12:00:17;;;;;;;2.47;1.60;;;10.30;52.80;;;;;;5032942;28;20040;-83
2022/02/24 12:02:49;;;;;;;2.42;1.83;;;10.30;52.90;;;;;;5056560;28;20102;-84
2022/02/24 12:05:22;;;;;;;3.10;1.50;;;10.30;53.00;;;;;;5056336;28;20492;-84
2022/02/24 12:08:04;;;;;;;3.33;1.70;;;10.30;53.10;;;;;;5026868;28;20527;-80
2022/02/24 12:10:45;;;;;;;2.72;1.50;;;10.30;53.10;;;;;;5056463;28;20537;-82
2022/02/24 12:13:23;;;;;;;1.60;1.50;;;10.40;53.00;;;;;;5054876;28;20040;-84
2022/02/24 12:16:12;;;;;;;3.95;1.65;;;10.40;52.90;;;;;;5036884;28;20032;-82
2022/02/24 12:18:40;;;;;;;2.38;1.85;;;10.40;52.90;;;;;;5038175;28;20048;-84
2022/02/24 12:21:35;;;;;;;4.38;2.08;;;10.40;52.80;;;;;;5024632;28;20044;-84
2022/02/24 12:24:10;;;;;;;11.77;2.30;;;10.40;52.80;;;;;;5036422;28;20032;-85
2022/02/24 12:26:48;;;;;;;1.90;1.58;;;10.40;52.90;;;;;;5055151;28;20073;-85
2022/02/24 12:29:43;;;;;;;3.35;1.70;;;10.40;53.20;;;;;;5055887;28;20025;-83
2022/02/24 12:32:12;;;;;;;2.25;1.73;;;10.50;53.20;;;;;;5055436;28;20039;-83
2022/02/24 12:34:38;;;;;;;2.20;1.80;;;10.50;53.00;;;;;;5034764;28;20033;-84
2022/02/24 12:37:14;;;;;;;3.72;1.90;;;10.50;52.80;;;;;;5038465;28;20024;-83
2022/02/24 12:39:41;;;;;;;3.53;1.77;;;10.50;52.80;;;;;;5055039;28;20437;-82
2022/02/24 12:42:10;;;;;;;3.33;1.63;;;10.50;53.10;;;;;;5050869;28;20175;-83
2022/02/24 12:44:36;;;;;;;3.33;1.70;;;10.50;53.00;;;;;;5054452;28;20071;-84
2022/02/24 12:47:04;;;;;;;1.92;1.58;;;10.50;52.90;;;;;;5054439;28;20052;-81
2022/02/24 12:49:44;;;;;;;3.53;2.47;;;10.50;52.80;;;;;;5019828;28;20047;-82
2022/02/24 12:52:15;;;;;;;2.63;2.00;;;10.60;52.80;;;;;;5035896;28;20044;-83